Time;durP1;ratioP1;P1;durP2;ratioP2;P2;SDS_P1;SDS_P2;PMS_P1;PMS_P2;Temp;Humidity;BMP_temperature;BMP_pressure;BME280_temperature;BME280_humidity;BME280_pressure;Samples;Min_cycle;Max_cycle;Signal;HPM_P1;HPM_P2
2022/12/22 03:27:51;;;;;;;;;;;;;;;-144.99;100.00;52578.53;5012950;28;20421;-76
2022/12/22 03:30:17;;;;;;;;;;;;;;;-144.99;100.00;52578.53;5010012;28;20022;-74
2022/12/22 03:32:45;;;;;;;;;;;;;;;-144.99;100.00;52562.25;5004269;28;20056;-75
2022/12/22 03:35:12;;;;;;;;;;;;;;;-144.99;100.00;52550.00;5003039;28;19987;-74
2022/12/22 03:37:38;;;;;;;;;;;;;;;-144.99;100.00;52594.84;5011125;28;20361;-74
2022/12/22 03:40:05;;;;;;;;;;;;;;;-144.99;100.00;52578.53;5012260;28;20007;-73
2022/12/22 03:48:06;;;;;;;;;;;;;;;-144.99;100.00;52586.69;4947586;28;19944;-73
2022/12/22 03:50:33;;;;;;;;;;;;;;;-144.99;100.00;52615.25;5010434;28;19981;-74
2022/12/22 03:52:59;;;;;;;;;;;;;;;-144.99;100.00;52582.63;5009191;28;19978;-73
2022/12/22 03:55:26;;;;;;;;;;;;;;;-144.99;100.00;52592.81;5012217;28;19939;-71
2022/12/22 03:57:52;;;;;;;;;;;;;;;-144.99;100.00;52570.38;5012018;28;19994;-71
2022/12/22 04:00:19;;;;;;;;;;;;;;;-144.99;100.00;52566.31;5011606;28;20636;-73
2022/12/22 04:02:46;;;;;;;;;;;;;;;-144.99;100.00;52543.91;5009760;28;20011;-71
2022/12/22 04:05:14;;;;;;;;;;;;;;;-144.99;100.00;52603.00;5008577;28;19987;-70
2022/12/22 04:07:40;;;;;;;;;;;;;;;-144.99;100.00;52611.16;5011477;28;19982;-71
2022/12/22 04:12:54;;;;;;;;;;;;;;;-144.99;100.00;52550.00;5021188;28;20467;-71
2022/12/22 04:15:21;;;;;;;;;;;;;;;-144.99;100.00;52556.13;5004438;28;20398;-69
2022/12/22 04:17:48;;;;;;;;;;;;;;;-144.99;100.00;52594.84;5011456;28;19938;-70
2022/12/22 04:20:15;;;;;;;;;;;;;;;-144.99;100.00;52566.31;5010034;28;20020;-70
2022/12/22 04:22:42;;;;;;;;;;;;;;;-144.99;100.00;52627.47;5011537;28;19945;-69
2022/12/22 04:25:09;;;;;;;;;;;;;;;-144.99;100.00;52586.69;5011060;28;19951;-69
2022/12/22 04:27:35;;;;;;;;;;;;;;;-144.99;100.00;52594.84;5013630;28;19965;-69
2022/12/22 04:30:02;;;;;;;;;;;;;;;-144.99;100.00;52560.19;5009223;28;19978;-71
2022/12/22 04:32:29;;;;;;;;;;;;;;;-144.99;100.00;52586.69;5009007;28;19940;-69
2022/12/22 04:34:55;;;;;;;;;;;;;;;-144.99;100.00;52576.50;5006897;28;19939;-66
2022/12/22 04:37:23;;;;;;;;;;;;;;;-144.99;100.00;52558.16;5007530;28;20019;-67
2022/12/22 04:39:50;;;;;;;;;;;;;;;-144.99;100.00;52598.94;5010307;28;19993;-66
2022/12/22 04:42:16;;;;;;;;;;;;;;;-144.99;100.00;52566.31;5005157;28;20215;-66
2022/12/22 04:44:43;;;;;;;;;;;;;;;-144.99;100.00;52562.25;5005734;28;20410;-66
2022/12/22 04:47:09;;;;;;;;;;;;;;;-144.99;100.00;52566.31;5012437;28;19942;-67
2022/12/22 04:49:36;;;;;;;;;;;;;;;-144.99;100.00;52615.25;5011945;28;20431;-66
2022/12/22 04:52:03;;;;;;;;;;;;;;;-144.99;100.00;52603.00;5009990;28;20005;-66
2022/12/22 04:54:31;;;;;;;;;;;;;;;-144.99;100.00;52541.84;5008783;28;19953;-71
2022/12/22 04:56:57;;;;;;;;;;;;;;;-144.99;100.00;52576.50;5009457;28;19946;-70
2022/12/22 04:59:24;;;;;;;;;;;;;;;-144.99;100.00;52598.94;5010232;28;19959;-70
2022/12/22 05:01:51;;;;;;;;;;;;;;;-144.99;100.00;52562.25;5005531;28;19939;-70
2022/12/22 05:04:17;;;;;;;;;;;;;;;-144.99;100.00;52558.16;5008712;28;20415;-70
2022/12/22 05:06:44;;;;;;;;;;;;;;;-144.99;100.00;52590.78;5005748;28;20441;-70
2022/12/22 05:09:11;;;;;;;;;;;;;;;-144.99;100.00;52600.97;5008792;28;19961;-69
2022/12/22 05:11:39;;;;;;;;;;;;;;;-144.99;100.00;52611.16;5009102;28;19962;-72
2022/12/22 05:14:05;;;;;;;;;;;;;;;-144.99;100.00;52594.84;5011486;28;20405;-72
2022/12/22 05:16:32;;;;;;;;;;;;;;;-144.99;100.00;52607.09;5008777;28;19939;-73
2022/12/22 05:18:58;;;;;;;;;;;;;;;-144.99;100.00;52594.84;5009262;28;20028;-73
2022/12/22 05:21:25;;;;;;;;;;;;;;;-144.99;100.00;52582.63;5009842;28;20431;-73
2022/12/22 05:23:52;;;;;;;;;;;;;;;-144.99;100.00;52556.13;5005657;28;19943;-73
2022/12/22 05:26:19;;;;;;;;;;;;;;;-144.99;100.00;52607.09;5008545;28;19952;-75
2022/12/22 05:28:47;;;;;;;;;;;;;;;-144.99;100.00;52594.84;5010777;28;19958;-75
2022/12/22 05:31:15;;;;;;;;;;;;;;;-144.99;100.00;52570.38;5007506;28;20462;-75
2022/12/22 05:33:42;;;;;;;;;;;;;;;-144.99;100.00;52598.94;5011172;28;19944;-73
2022/12/22 05:36:08;;;;;;;;;;;;;;;-144.99;100.00;52562.25;5005095;28;20462;-73
2022/12/22 05:38:35;;;;;;;;;;;;;;;-144.99;100.00;52558.16;5003322;28;20419;-73
2022/12/22 05:41:02;;;;;;;;;;;;;;;-144.99;100.00;52615.25;5007242;28;19943;-74
2022/12/22 05:43:28;;;;;;;;;;;;;;;-144.99;100.00;52584.66;5011138;28;19938;-74
2022/12/22 05:45:57;;;;;;;;;;;;;;;-144.99;100.00;52566.31;5008827;28;19940;-74
2022/12/22 05:48:24;;;;;;;;;;;;;;;-144.99;100.00;52574.47;5018802;28;19980;-73
2022/12/22 05:50:50;;;;;;;;;;;;;;;-144.99;100.00;52578.53;5021970;28;19964;-73
2022/12/22 05:53:17;;;;;;;;;;;;;;;-144.99;100.00;52582.63;5021510;28;19985;-73
2022/12/22 05:55:43;;;;;;;;;;;;;;;-144.99;100.00;52582.63;5014740;28;19942;-74
2022/12/22 05:58:10;;;;;;;;;;;;;;;-144.99;100.00;52578.53;5012113;28;19948;-73
2022/12/22 06:00:37;;;;;;;;;;;;;;;-144.99;100.00;52582.63;5007970;28;19946;-73
2022/12/22 06:03:05;;;;;;;;;;;;;;;-144.99;100.00;52550.00;5010978;28;19942;-71
2022/12/22 06:05:31;;;;;;;;;;;;;;;-144.99;100.00;52566.31;5009166;28;19955;-71
2022/12/22 06:07:58;;;;;;;;;;;;;;;-144.99;100.00;52570.38;5009546;28;19952;-71
2022/12/22 06:10:25;;;;;;;;;;;;;;;-144.99;100.00;52594.84;5013999;28;19955;-71
2022/12/22 06:12:51;;;;;;;;;;;;;;;-144.99;100.00;52566.31;5014051;28;19963;-72
2022/12/22 06:15:18;;;;;;;;;;;;;;;-144.99;100.00;52550.00;5011363;28;20377;-71
2022/12/22 06:17:45;;;;;;;;;;;;;;;-144.99;100.00;52603.00;5008677;28;19948;-73
2022/12/22 06:20:13;;;;;;;;;;;;;;;-144.99;100.00;52576.50;5002993;28;20045;-73
2022/12/22 06:22:40;;;;;;;;;;;;;;;-144.99;100.00;52607.09;4315113;28;10000601;-72
2022/12/22 06:25:07;;;;;;;;;;;;;;;-144.99;100.00;52554.09;5008004;28;19953;-71
2022/12/22 06:27:34;;;;;;;;;;;;;;;-144.99;100.00;52582.63;5023434;23;19932;-78
2022/12/22 06:30:00;;;;;;;;;;;;;;;-144.99;100.00;52566.31;5024355;28;19959;-76
2022/12/22 06:32:27;;;;;;;;;;;;;;;-144.99;100.00;52586.69;5006058;28;19961;-76
2022/12/22 06:34:54;;;;;;;;;;;;;;;-144.99;100.00;52611.16;5017519;28;20020;-76
2022/12/22 06:37:22;;;;;;;;;;;;;;;-144.99;100.00;52574.47;5006160;28;19947;-75
2022/12/22 06:39:49;;;;;;;;;;;;;;;-144.99;100.00;52594.84;5003563;28;19956;-76
2022/12/22 06:44:59;;;;;;;;;;;;;;;-144.99;100.00;52560.19;4997599;28;19973;-75
2022/12/22 06:47:26;;;;;;;;;;;;;;;-144.99;100.00;52586.69;5010496;28;19949;-78
2022/12/22 06:49:53;;;;;;;;;;;;;;;-144.99;100.00;52611.16;5026387;28;20021;-78
2022/12/22 06:52:19;;;;;;;;;;;;;;;-144.99;100.00;52586.69;5027327;28;20012;-78
2022/12/22 06:54:47;;;;;;;;;;;;;;;-144.99;100.00;52566.31;5020585;28;19962;-80
2022/12/22 06:57:14;;;;;;;;;;;;;;;-144.99;100.00;52560.19;5027408;28;19977;-80
2022/12/22 06:59:41;;;;;;;;;;;;;;;-144.99;100.00;52545.94;5022923;28;19967;-79
2022/12/22 07:02:09;;;;;;;;;;;;;;;-144.99;100.00;52590.78;5028299;28;19948;-80
2022/12/22 07:04:36;;;;;;;;;;;;;;;-144.99;100.00;52582.63;5028437;28;19950;-79
2022/12/22 07:07:02;;;;;;;;;;;;;;;-144.99;100.00;52574.47;5026404;28;20394;-77
2022/12/22 07:09:29;;;;;;;;;;;;;;;-144.99;100.00;52574.47;5023027;28;19987;-81
2022/12/22 07:11:57;;;;;;;;;;;;;;;-144.99;100.00;52603.00;5027185;28;19959;-79
2022/12/22 07:14:24;;;;;;;;;;;;;;;-144.99;100.00;52586.69;5027373;28;19959;-78
2022/12/22 07:16:50;;;;;;;;;;;;;;;-144.99;100.00;52556.13;5016868;28;19983;-78
2022/12/22 07:19:17;;;;;;;;;;;;;;;-144.99;100.00;52562.25;5025457;28;20698;-78
2022/12/22 07:21:46;;;;;;;;;;;;;;;-144.99;100.00;52570.38;5024790;28;19948;-79
2022/12/22 07:24:12;;;;;;;;;;;;;;;-144.99;100.00;52594.84;5029203;28;19937;-79
2022/12/22 07:26:39;;;;;;;;;;;;;;;-144.99;100.00;52586.69;5026002;28;19958;-76
2022/12/22 07:29:07;;;;;;;;;;;;;;;-144.99;100.00;52533.69;4955757;28;1935707;-80
2022/12/22 07:31:34;;;;;;;;;;;;;;;-144.99;100.00;52572.44;5035515;28;19944;-78
2022/12/22 07:34:00;;;;;;;;;;;;;;;-144.99;100.00;52582.63;5027932;28;20016;-77
2022/12/22 07:36:27;;;;;;;;;;;;;;;-144.99;100.00;52615.25;5019236;28;19988;-78
2022/12/22 07:38:54;;;;;;;;;;;;;;;-144.99;100.00;52598.94;5013025;28;19957;-78
2022/12/22 07:44:05;;;;;;;;;;;;;;;-144.99;100.00;52537.78;5021971;28;19957;-79
2022/12/22 07:46:34;;;;;;;;;;;;;;;-144.99;100.00;52566.31;5020714;28;20063;-77
2022/12/22 07:51:45;;;;;;;;;;;;;;;-144.99;100.00;52584.66;5014547;28;19992;-78
2022/12/22 07:54:13;;;;;;;;;;;;;;;-144.99;100.00;52562.25;5010571;28;19951;-79
2022/12/22 07:56:40;;;;;;;;;;;;;;;-144.99;100.00;52600.97;5024964;28;19947;-76
2022/12/22 07:59:07;;;;;;;;;;;;;;;-144.99;100.00;52562.25;5027116;28;19957;-77
2022/12/22 08:01:35;;;;;;;;;;;;;;;-144.99;100.00;52590.78;5027574;28;19994;-78
2022/12/22 08:04:02;;;;;;;;;;;;;;;-144.99;100.00;52537.78;5020886;28;19948;-77
2022/12/22 08:06:29;;;;;;;;;;;;;;;-144.99;100.00;52566.31;4991711;28;19959;-80
2022/12/22 08:08:55;;;;;;;;;;;;;;;-144.99;100.00;52562.25;5019339;28;20447;-80
2022/12/22 08:11:22;;;;;;;;;;;;;;;-144.99;100.00;52580.59;5031317;28;19932;-80
2022/12/22 08:13:49;;;;;;;;;;;;;;;-144.99;100.00;52607.09;5024689;28;20016;-80
2022/12/22 08:16:15;;;;;;;;;;;;;;;-144.99;100.00;52592.81;5011909;28;19948;-76
2022/12/22 08:18:44;;;;;;;;;;;;;;;-144.99;100.00;52560.19;5011103;28;20410;-77
2022/12/22 08:21:11;;;;;;;;;;;;;;;-144.99;100.00;52529.63;5001510;28;20512;-76
2022/12/22 08:23:37;;;;;;;;;;;;;;;-144.99;100.00;52598.94;5012541;28;19946;-77
2022/12/22 08:26:07;;;;;;;;;;;;;;;-144.99;100.00;52566.31;5012441;28;20224;-77
2022/12/22 08:28:36;;;;;;;;;;;;;;;-144.99;100.00;52592.81;5011439;28;19965;-77
2022/12/22 08:31:04;;;;;;;;;;;;;;;-144.99;100.00;52603.00;5011702;28;19948;-77
2022/12/22 08:33:30;;;;;;;;;;;;;;;-144.99;100.00;52558.16;5014485;28;19964;-78
2022/12/22 08:35:58;;;;;;;;;;;;;;;-144.99;100.00;52586.69;5017281;28;20066;-77
2022/12/22 08:38:25;;;;;;;;;;;;;;;-144.99;100.00;52586.69;5015218;28;19968;-78
2022/12/22 08:40:52;;;;;;;;;;;;;;;-144.99;100.00;52596.88;5010824;28;19980;-76
2022/12/22 08:43:20;;;;;;;;;;;;;;;-144.99;100.00;52552.03;4998495;28;19957;-78
2022/12/22 08:45:47;;;;;;;;;;;;;;;-144.99;100.00;52582.63;5010969;28;19951;-78
2022/12/22 08:48:13;;;;;;;;;;;;;;;-144.99;100.00;52545.94;4998528;28;19955;-79
2022/12/22 08:50:40;;;;;;;;;;;;;;;-144.99;100.00;52594.84;5001953;28;19949;-81
2022/12/22 08:53:09;;;;;;;;;;;;;;;-144.99;100.00;52607.09;5033245;28;19952;-80
2022/12/22 08:55:36;;;;;;;;;;;;;;;-144.99;100.00;52586.69;5015011;28;19958;-78
2022/12/22 08:58:02;;;;;;;;;;;;;;;-144.99;100.00;52578.53;5011454;28;20026;-77
2022/12/22 09:00:29;;;;;;;;;;;;;;;-144.99;100.00;52582.63;5012346;28;19968;-78
2022/12/22 09:02:56;;;;;;;;;;;;;;;-144.99;100.00;52566.31;5010985;28;19944;-77
2022/12/22 09:05:23;;;;;;;;;;;;;;;-144.99;100.00;52570.38;5015646;28;19945;-76
2022/12/22 09:07:50;;;;;;;;;;;;;;;-144.99;100.00;52570.38;5015707;28;19978;-78
2022/12/22 09:10:18;;;;;;;;;;;;;;;-144.99;100.00;52572.44;5013945;28;19992;-79
2022/12/22 09:12:46;;;;;;;;;;;;;;;-144.99;100.00;52539.81;5008596;28;19980;-77
2022/12/22 09:15:13;;;;;;;;;;;;;;;-144.99;100.00;52578.53;5007460;28;19949;-77
2022/12/22 09:17:42;;;;;;;;;;;;;;;-144.99;100.00;52574.47;5004690;28;20357;-76
2022/12/22 09:20:09;;;;;;;;;;;;;;;-144.99;100.00;52539.81;5006636;28;19968;-77
2022/12/22 09:22:36;;;;;;;;;;;;;;;-144.99;100.00;52545.94;5008545;28;20149;-75
2022/12/22 09:25:02;;;;;;;;;;;;;;;-144.99;100.00;52582.63;5007392;28;20785;-76
2022/12/22 09:27:31;;;;;;;;;;;;;;;-144.99;100.00;52580.59;5004257;28;19948;-76
2022/12/22 09:29:58;;;;;;;;;;;;;;;-144.99;100.00;52586.69;5008255;28;19977;-77
2022/12/22 09:32:24;;;;;;;;;;;;;;;-144.99;100.00;52545.94;5027180;28;19950;-79
2022/12/22 09:34:52;;;;;;;;;;;;;;;-144.99;100.00;52545.94;5022913;28;19966;-80
2022/12/22 09:37:18;;;;;;;;;;;;;;;-144.99;100.00;52570.38;5009494;28;19955;-77
2022/12/22 09:39:45;;;;;;;;;;;;;;;-144.99;100.00;52586.69;5005529;28;19976;-79
2022/12/22 09:42:14;;;;;;;;;;;;;;;-144.99;100.00;52586.69;5008639;28;20002;-78
2022/12/22 09:44:44;;;;;;;;;;;;;;;-144.99;100.00;52529.63;5009007;28;19950;-77
2022/12/22 09:47:16;;;;;;;;;;;;;;;-144.99;100.00;52594.84;5004667;28;19979;-77
2022/12/22 09:49:42;;;;;;;;;;;;;;;-144.99;100.00;52562.25;5005569;28;20355;-76
2022/12/22 09:52:21;;;;;;;;;;;;;;;-144.99;100.00;52566.31;5005965;28;20484;-78
2022/12/22 09:54:49;;;;;;;;;;;;;;;-144.99;100.00;52570.38;5009256;28;19945;-78
2022/12/22 09:57:16;;;;;;;;;;;;;;;-144.99;100.00;52545.94;5004300;28;20002;-77
2022/12/22 09:59:44;;;;;;;;;;;;;;;-144.99;100.00;52566.31;5011134;28;19968;-77
2022/12/22 10:02:15;;;;;;;;;;;;;;;-144.99;100.00;52594.84;5012131;28;20330;-78
2022/12/22 10:04:49;;;;;;;;;;;;;;;-144.99;100.00;52564.28;5013038;28;20512;-79
2022/12/22 10:07:22;;;;;;;;;;;;;;;-144.99;100.00;52537.78;5012330;28;19949;-79
2022/12/22 10:09:49;;;;;;;;;;;;;;;-144.99;100.00;52545.94;5001520;28;19992;-77
2022/12/22 10:12:17;;;;;;;;;;;;;;;-144.99;100.00;52564.28;5023920;28;19946;-79
2022/12/22 10:14:46;;;;;;;;;;;;;;;-144.99;100.00;52533.69;5033203;28;19932;-76
2022/12/22 10:17:20;;;;;;;;;;;;;;;-144.99;100.00;52513.31;5010538;28;20406;-77
2022/12/22 10:19:47;;;;;;;;;;;;;;;-144.99;100.00;52554.09;5008069;28;19959;-78
2022/12/22 10:22:25;;;;;;;;;;;;;;;-144.99;100.00;52590.78;5012034;28;19947;-78
2022/12/22 10:24:52;;;;;;;;;;;;;;;-144.99;100.00;52558.16;5015637;28;20041;-80
2022/12/22 10:27:21;;;;;;;;;;;;;;;-144.99;100.00;52586.69;5008306;28;20032;-77
2022/12/22 10:29:49;;;;;;;;;;;;;;;-144.99;100.00;52562.25;5012051;28;20281;-77
2022/12/22 10:32:17;;;;;;;;;;;;;;;-144.99;100.00;52582.63;5003360;28;20019;-77
2022/12/22 10:34:58;;;;;;;;;;;;;;;-144.99;100.00;52576.50;5010303;28;19950;-78
2022/12/22 10:37:30;;;;;;;;;;;;;;;-144.99;100.00;52562.25;5006814;28;19955;-77
2022/12/22 10:39:56;;;;;;;;;;;;;;;-144.99;100.00;52578.53;5011767;28;19971;-78
2022/12/22 10:42:23;;;;;;;;;;;;;;;-144.99;100.00;52554.09;5006826;28;20457;-76
2022/12/22 10:44:51;;;;;;;;;;;;;;;-144.99;100.00;52558.16;5017300;28;19950;-78
2022/12/22 10:47:19;;;;;;;;;;;;;;;-144.99;100.00;52543.91;5018796;28;19960;-77
2022/12/22 10:49:47;;;;;;;;;;;;;;;-144.99;100.00;52545.94;5016655;28;19969;-77
2022/12/22 10:52:15;;;;;;;;;;;;;;;-144.99;100.00;52574.47;5018394;28;20295;-80
2022/12/22 10:54:43;;;;;;;;;;;;;;;-144.99;100.00;52588.75;5037001;28;19958;-77
2022/12/22 10:57:25;;;;;;;;;;;;;;;-144.99;100.00;52562.25;5024463;28;20003;-76
2022/12/22 10:59:54;;;;;;;;;;;;;;;-144.99;100.00;52584.66;5020255;28;19955;-76
2022/12/22 11:02:25;;;;;;;;;;;;;;;-144.99;100.00;52521.47;5018442;28;19953;-77
2022/12/22 11:04:53;;;;;;;;;;;;;;;-144.99;100.00;52556.13;5019504;28;20470;-77
2022/12/22 11:07:19;;;;;;;;;;;;;;;-144.99;100.00;52574.47;5019371;28;19954;-76
2022/12/22 11:09:47;;;;;;;;;;;;;;;-144.99;100.00;52533.69;5020932;28;19990;-77
2022/12/22 11:12:19;;;;;;;;;;;;;;;-144.99;100.00;52492.94;5004544;28;20339;-75
2022/12/22 11:14:53;;;;;;;;;;;;;;;-144.99;100.00;52374.72;5005999;28;19947;-78
2022/12/22 11:17:26;;;;;;;;;;;;;;;-144.99;100.00;52423.63;5009907;28;19947;-77
2022/12/22 11:20:03;;;;;;;;;;;;;;;-144.99;100.00;52350.25;5012533;28;19966;-77
2022/12/22 11:22:34;;;;;;;;;;;;;;;-144.99;90.85;52293.19;5011499;28;20404;-75
2022/12/22 11:25:14;;;;;;;;;;;;;;;-144.99;80.61;52272.81;5014119;28;19998;-75
2022/12/22 11:27:44;;;;;;;;;;;;;;;-144.99;65.39;52293.19;5011469;28;19956;-77
2022/12/22 11:30:12;;;;;;;;;;;;;;;-144.99;63.80;52348.22;5011580;28;19964;-75
2022/12/22 11:32:49;;;;;;;;;;;;;;;-144.99;61.31;52350.25;5012798;28;19975;-77
2022/12/22 11:35:19;;;;;;;;;;;;;;;-144.99;61.27;52386.94;5023552;28;19947;-76
2022/12/22 11:37:49;;;;;;;;;;;;;;;-144.99;62.15;52421.59;5031270;28;19987;-76
2022/12/22 11:40:20;;;;;;;;;;;;;;;-144.99;63.67;52468.47;4997939;28;19969;-75
2022/12/22 11:42:55;;;;;;;;;;;;;;;-144.99;66.93;52486.81;5009126;28;19958;-76
2022/12/22 11:45:31;;;;;;;;;;;;;;;-144.99;69.41;52505.16;5010617;28;19926;-80
2022/12/22 11:48:05;;;;;;;;;;;;;;;-144.99;71.88;52492.94;5012018;28;20501;-75
2022/12/22 11:50:40;;;;;;;;;;;;;;;-144.99;74.46;52501.09;5008329;28;19959;-75
2022/12/22 11:53:16;;;;;;;;;;;;;;;-144.99;74.67;52464.41;5009520;28;19961;-74
2022/12/22 11:55:45;;;;;;;;;;;;;;;-144.99;74.98;52476.63;5010046;28;20311;-75
2022/12/22 11:58:20;;;;;;;;;;;;;;;-144.99;75.31;52488.84;5013093;28;20447;-76
2022/12/22 12:00:51;;;;;;;;;;;;;;;-144.99;76.25;52505.16;5011292;28;19946;-77
2022/12/22 12:03:38;;;;;;;;;;;;;;;-144.99;76.64;52497.00;5012297;28;19947;-76
2022/12/22 12:06:23;;;;;;;;;;;;;;;-144.99;76.22;52407.31;5011487;28;20479;-75
2022/12/22 12:08:58;;;;;;;;;;;;;;;-144.99;71.19;52435.88;5013651;28;19929;-75
2022/12/22 12:11:29;;;;;;;;;;;;;;;-144.99;69.49;52395.09;5004997;28;19972;-74
2022/12/22 12:14:02;;;;;;;;;;;;;;;-144.99;65.14;52376.75;5012111;28;20220;-74
2022/12/22 12:16:33;;;;;;;;;;;;;;;-144.99;60.43;52317.66;5023004;28;19945;-75
2022/12/22 12:19:14;;;;;;;;;;;;;;;-144.99;58.41;52270.78;5032801;28;19955;-76
2022/12/22 12:21:44;;;;;;;;;;;;;;;-144.99;55.58;52280.97;4995923;28;20432;-74
2022/12/22 12:24:21;;;;;;;;;;;;;;;-144.99;52.55;52301.34;5004348;28;19995;-75
2022/12/22 12:26:52;;;;;;;;;;;;;;;-144.99;52.01;52219.81;5007861;28;19936;-74
2022/12/22 12:29:20;;;;;;;;;;;;;;;-144.99;52.55;52317.66;5004444;28;20494;-75
2022/12/22 12:31:50;;;;;;;;;;;;;;;-144.99;51.66;52327.84;5019166;23;19961;-71
2022/12/22 12:34:17;;;;;;;;;;;;;;;-144.99;51.83;52450.13;5011257;28;19956;-71
2022/12/22 12:36:46;;;;;;;;;;;;;;;-144.99;54.76;52470.50;5006876;28;19929;-71
2022/12/22 12:39:18;;;;;;;;;;;;;;;-144.99;58.29;52468.47;5006062;28;19959;-71
2022/12/22 12:41:52;;;;;;;;;;;;;;;-144.99;61.97;52444.03;5007461;28;20017;-72
2022/12/22 12:44:22;;;;;;;;;;;;;;;-144.99;62.60;52541.84;5005857;28;20099;-70
2022/12/22 12:46:58;;;;;;;;;;;;;;;-144.99;64.18;52541.84;5006999;28;19946;-70
2022/12/22 12:49:43;;;;;;;;;;;;;;;-144.99;66.02;52537.78;4999335;28;19956;-70
2022/12/22 12:52:10;;;;;;;;;;;;;;;-144.99;66.91;52472.56;5003416;28;19949;-69
2022/12/22 12:54:38;;;;;;;;;;;;;;;-144.99;65.14;52431.78;5005013;28;20447;-70
2022/12/22 12:57:24;;;;;;;;;;;;;;;-144.99;62.10;52452.16;5007106;28;19949;-70
2022/12/22 12:59:52;;;;;;;;;;;;;;;-144.99;60.85;52403.25;5004503;28;20425;-70
2022/12/22 13:02:46;;;;;;;;;;;;;;;-144.99;60.71;52547.97;5004462;28;19960;-70
2022/12/22 13:05:35;;;;;;;;;;;;;;;-144.99;63.03;52547.97;4976909;28;20403;-70
2022/12/22 13:08:06;;;;;;;;;;;;;;;-144.99;65.36;52462.34;5005896;28;19964;-70
2022/12/22 13:10:33;;;;;;;;;;;;;;;-144.99;65.62;52537.78;5003669;28;19954;-70
2022/12/22 13:13:00;;;;;;;;;;;;;;;-144.99;67.32;52513.31;5006057;28;20012;-70
2022/12/22 13:15:29;;;;;;;;;;;;;;;-144.99;71.87;52607.09;5005264;28;19945;-70
2022/12/22 13:17:56;;;;;;;;;;;;;;;-144.99;78.00;52603.00;5003307;28;19944;-70
2022/12/22 13:20:25;;;;;;;;;;;;;;;-144.99;84.93;52603.00;5007938;28;19977;-70
2022/12/22 13:22:52;;;;;;;;;;;;;;;-144.99;90.04;52619.31;5003594;28;20112;-69
2022/12/22 13:25:19;;;;;;;;;;;;;;;-144.99;91.54;52515.34;5003967;28;19951;-69
2022/12/22 13:27:46;;;;;;;;;;;;;;;-144.99;89.88;52525.56;5004122;28;19947;-69
2022/12/22 13:30:14;;;;;;;;;;;;;;;-144.99;85.53;52560.19;5004162;28;19971;-69
2022/12/22 13:32:43;;;;;;;;;;;;;;;-144.99;80.52;52570.38;5005429;28;19956;-69
2022/12/22 13:35:15;;;;;;;;;;;;;;;-144.99;78.91;52533.69;5003112;28;19957;-69
2022/12/22 13:37:45;;;;;;;;;;;;;;;-144.99;77.17;52568.34;5004109;28;19942;-70
2022/12/22 13:40:16;;;;;;;;;;;;;;;-144.99;76.83;52572.44;5003237;28;20014;-70
2022/12/22 13:42:45;;;;;;;;;;;;;;;-144.99;79.71;52631.53;5004036;28;19947;-70
2022/12/22 13:45:14;;;;;;;;;;;;;;;-144.99;85.21;52580.59;5004837;28;19947;-69
2022/12/22 13:47:44;;;;;;;;;;;;;;;-144.99;87.63;52578.53;5004405;28;20093;-70
2022/12/22 13:50:17;;;;;;;;;;;;;;;-144.99;88.71;52607.09;5006160;28;20332;-69
2022/12/22 13:52:43;;;;;;;;;;;;;;;-144.99;89.39;52617.28;5006338;28;19943;-70
2022/12/22 13:55:13;;;;;;;;;;;;;;;-144.99;90.33;52588.75;5006390;28;19970;-69
2022/12/22 13:57:39;;;;;;;;;;;;;;;-144.99;93.59;52617.28;5005782;28;20133;-69
2022/12/22 14:00:16;;;;;;;;;;;;;;;-144.99;95.84;52631.53;5006504;28;20445;-69
2022/12/22 14:02:44;;;;;;;;;;;;;;;-144.99;98.75;52607.09;5005973;28;19953;-69
2022/12/22 14:05:13;;;;;;;;;;;;;;;-144.99;99.05;52554.09;5006139;28;19945;-69
2022/12/22 14:07:39;;;;;;;;;;;;;;;-144.99;95.77;52562.25;5006666;28;19960;-68
2022/12/22 14:10:06;;;;;;;;;;;;;;;-144.99;91.38;52537.78;5004509;28;19964;-69
2022/12/22 14:12:38;;;;;;;;;;;;;;;-144.99;89.01;52576.50;4997706;28;20002;-69
2022/12/22 14:15:08;;;;;;;;;;;;;;;-144.99;87.04;52552.03;4995145;28;20015;-69
2022/12/22 14:17:35;;;;;;;;;;;;;;;-144.99;85.24;52578.53;5005361;28;19950;-70
2022/12/22 14:20:12;;;;;;;;;;;;;;;-144.99;84.32;52611.16;5003207;28;20123;-69
2022/12/22 14:22:41;;;;;;;;;;;;;;;-144.99;84.98;52584.66;5002871;28;20299;-69
2022/12/22 14:25:12;;;;;;;;;;;;;;;-144.99;86.57;52639.69;5008336;28;20013;-69
2022/12/22 14:27:42;;;;;;;;;;;;;;;-144.99;88.55;52611.16;5007496;28;19952;-69
2022/12/22 14:30:16;;;;;;;;;;;;;;;-144.99;90.97;52643.78;5004953;28;20033;-69
2022/12/22 14:32:44;;;;;;;;;;;;;;;-144.99;94.03;52629.50;5010946;28;19946;-69
2022/12/22 14:35:24;;;;;;;;;;;;;;;-144.99;96.33;52651.94;5007353;28;19971;-69
2022/12/22 14:37:52;;;;;;;;;;;;;;;-144.99;98.01;52651.94;5005134;28;19943;-69
2022/12/22 14:40:29;;;;;;;;;;;;;;;-144.99;98.77;52692.69;5007526;28;19969;-69
2022/12/22 14:42:56;;;;;;;;;;;;;;;-144.99;100.00;52668.22;5008106;28;20390;-69
2022/12/22 14:45:23;;;;;;;;;;;;;;;-144.99;100.00;52662.13;5004013;28;19940;-69
2022/12/22 14:47:50;;;;;;;;;;;;;;;-144.99;100.00;52645.81;5001854;28;20383;-69
2022/12/22 14:50:19;;;;;;;;;;;;;;;-144.99;100.00;52651.94;5008104;28;20040;-69
2022/12/22 14:52:48;;;;;;;;;;;;;;;-144.99;100.00;52676.38;5007060;28;20010;-70
2022/12/22 14:55:23;;;;;;;;;;;;;;;-144.99;100.00;52670.28;5007067;28;20000;-69
2022/12/22 14:57:52;;;;;;;;;;;;;;;-144.99;100.00;52625.44;4993910;28;20003;-68
2022/12/22 15:00:28;;;;;;;;;;;;;;;-144.99;100.00;52680.47;5005361;28;20010;-70
2022/12/22 15:02:55;;;;;;;;;;;;;;;-144.99;100.00;52651.94;5005277;28;19939;-69
2022/12/22 15:05:26;;;;;;;;;;;;;;;-144.99;100.00;52696.78;5006486;28;20358;-69
2022/12/22 15:07:53;;;;;;;;;;;;;;;-144.99;100.00;52688.63;5006951;28;19943;-69
2022/12/22 15:10:21;;;;;;;;;;;;;;;-144.99;100.00;52660.09;5004225;28;19959;-69
2022/12/22 15:12:48;;;;;;;;;;;;;;;-144.99;100.00;52653.97;5006969;28;20242;-69
2022/12/22 15:15:16;;;;;;;;;;;;;;;-144.99;100.00;52682.50;5003254;28;19978;-69
2022/12/22 15:17:44;;;;;;;;;;;;;;;-144.99;100.00;52700.84;5006559;28;20013;-69
2022/12/22 15:20:15;;;;;;;;;;;;;;;-144.99;100.00;52717.16;5002045;28;19933;-66
2022/12/22 15:22:43;;;;;;;;;;;;;;;-144.99;100.00;52680.47;4996232;28;20032;-67
2022/12/22 15:25:12;;;;;;;;;;;;;;;-144.99;100.00;52692.69;5005614;28;19945;-66
2022/12/22 15:27:39;;;;;;;;;;;;;;;-144.99;100.00;52656.00;5003730;28;19955;-65
2022/12/22 15:30:06;;;;;;;;;;;;;;;-144.99;100.00;52619.31;5002597;28;19962;-65
2022/12/22 15:32:32;;;;;;;;;;;;;;;-144.99;100.00;52653.97;5005828;28;19946;-66
2022/12/22 15:35:01;;;;;;;;;;;;;;;-144.99;100.00;52631.53;5003748;28;20045;-66
2022/12/22 15:37:27;;;;;;;;;;;;;;;-144.99;100.00;52668.22;5003968;28;19949;-66
2022/12/22 15:39:55;;;;;;;;;;;;;;;-144.99;100.00;52684.53;5006122;28;19958;-66
2022/12/22 15:42:22;;;;;;;;;;;;;;;-144.99;100.00;52682.50;5004569;28;19949;-66
2022/12/22 15:44:49;;;;;;;;;;;;;;;-144.99;100.00;52680.47;5004520;28;19952;-66
2022/12/22 15:47:15;;;;;;;;;;;;;;;-144.99;100.00;52678.44;5002994;28;20211;-66
2022/12/22 15:49:42;;;;;;;;;;;;;;;-144.99;100.00;52619.31;5005828;28;20558;-67
2022/12/22 15:52:11;;;;;;;;;;;;;;;-144.99;100.00;52704.94;5004621;28;20271;-66
2022/12/22 15:54:38;;;;;;;;;;;;;;;-144.99;100.00;52688.63;5005574;28;20048;-65
2022/12/22 15:57:09;;;;;;;;;;;;;;;-144.99;100.00;52647.84;5004998;28;19955;-65
2022/12/22 15:59:35;;;;;;;;;;;;;;;-144.99;100.00;52647.84;5003561;28;19959;-67
2022/12/22 16:02:02;;;;;;;;;;;;;;;-144.99;100.00;52698.81;5005604;28;19946;-65
2022/12/22 16:04:29;;;;;;;;;;;;;;;-144.99;100.00;52651.94;5005984;28;19943;-65
2022/12/22 16:06:55;;;;;;;;;;;;;;;-144.99;100.00;52702.88;5006212;28;20581;-65
2022/12/22 16:09:23;;;;;;;;;;;;;;;-144.99;100.00;52688.63;5005636;28;20219;-65
2022/12/22 16:11:50;;;;;;;;;;;;;;;-144.99;100.00;52684.53;5004303;28;19951;-65